Time;durP1;ratioP1;P1;durP2;ratioP2;P2;SDS_P1;SDS_P2;PMS_P1;PMS_P2;Temp;Humidity;BMP_temperature;BMP_pressure;BME280_temperature;BME280_humidity;BME280_pressure;Samples;Min_cycle;Max_cycle;Signal;HPM_P1;HPM_P2
2022/08/05 00:00:07;;;;;;;1.67;1.30;;;21.40;72.60;;;;;;5009654;28;20048;-65
2022/08/05 00:02:33;;;;;;;4.53;1.50;;;21.40;72.60;;;;;;5007029;28;20037;-66
2022/08/05 00:04:58;;;;;;;2.75;1.38;;;21.30;72.60;;;;;;5001235;28;20034;-66
2022/08/05 00:07:24;;;;;;;2.13;1.55;;;21.30;72.60;;;;;;5006097;28;20025;-65
2022/08/05 00:09:49;;;;;;;3.28;1.48;;;21.30;72.70;;;;;;5004778;28;20616;-65
2022/08/05 00:12:15;;;;;;;2.03;1.40;;;21.20;72.80;;;;;;5008699;28;20037;-65
2022/08/05 00:14:40;;;;;;;3.88;1.55;;;21.20;72.90;;;;;;5009889;28;20038;-66
2022/08/05 00:17:06;;;;;;;2.05;1.40;;;21.10;73.10;;;;;;5008892;28;20049;-65
2022/08/05 00:19:31;;;;;;;3.30;1.50;;;21.10;73.10;;;;;;5010303;28;20022;-66
2022/08/05 00:21:57;;;;;;;3.17;1.45;;;21.10;73.30;;;;;;5007633;28;20071;-66
2022/08/05 00:24:23;;;;;;;2.38;1.23;;;21.00;73.20;;;;;;5010012;28;20037;-67
2022/08/05 00:26:48;;;;;;;4.15;2.17;;;21.00;73.20;;;;;;5008247;28;20385;-65
2022/08/05 00:29:14;;;;;;;3.45;1.70;;;20.90;73.70;;;;;;5008932;28;20412;-66
2022/08/05 00:31:39;;;;;;;3.15;1.75;;;20.90;73.80;;;;;;5015724;28;20018;-66
2022/08/05 00:34:05;;;;;;;2.85;1.65;;;20.80;73.90;;;;;;5010044;28;20029;-65
2022/08/05 00:36:30;;;;;;;2.25;1.52;;;20.90;73.90;;;;;;5010992;28;20023;-66
2022/08/05 00:38:56;;;;;;;3.25;1.60;;;20.80;74.00;;;;;;5006181;28;20018;-66
2022/08/05 00:41:30;;;;;;;2.65;1.70;;;20.80;74.00;;;;;;5009766;28;20431;-66
2022/08/05 00:43:56;;;;;;;3.58;1.60;;;20.70;74.10;;;;;;5009548;28;20037;-65
2022/08/05 00:46:22;;;;;;;2.92;1.60;;;20.70;74.10;;;;;;5009514;28;20037;-65
2022/08/05 00:48:48;;;;;;;2.83;1.70;;;20.70;74.10;;;;;;5008256;28;20496;-65
2022/08/05 00:51:14;;;;;;;2.58;1.70;;;20.70;74.10;;;;;;5009623;28;20033;-66
2022/08/05 00:53:40;;;;;;;3.50;1.65;;;20.70;74.10;;;;;;5008688;28;20032;-67
2022/08/05 00:56:06;;;;;;;2.58;1.67;;;20.70;74.10;;;;;;5009324;28;20014;-66
2022/08/05 00:58:32;;;;;;;4.18;1.92;;;20.60;74.10;;;;;;5008337;28;20076;-66
2022/08/05 01:00:58;;;;;;;3.13;1.85;;;20.60;74.40;;;;;;5009389;28;20483;-67
2022/08/05 01:03:24;;;;;;;2.88;1.67;;;20.60;74.40;;;;;;5009047;28;20481;-66
2022/08/05 01:05:51;;;;;;;4.03;1.70;;;20.60;74.30;;;;;;5008829;28;20029;-66
2022/08/05 01:08:17;;;;;;;2.92;1.70;;;20.60;74.40;;;;;;5009596;28;20550;-66
2022/08/05 01:10:48;;;;;;;4.20;1.70;;;20.60;74.40;;;;;;5006162;28;20025;-67
2022/08/05 01:13:22;;;;;;;2.28;1.73;;;20.60;74.30;;;;;;5007952;28;20022;-65
2022/08/05 01:15:55;;;;;;;3.50;1.67;;;20.50;74.40;;;;;;5006408;28;20069;-66
2022/08/05 01:18:24;;;;;;;4.43;1.80;;;20.50;74.50;;;;;;5008546;28;20026;-66
2022/08/05 01:21:33;;;;;;;3.60;2.00;;;20.40;74.50;;;;;;5007424;28;20057;-66
2022/08/05 01:24:23;;;;;;;2.55;1.63;;;20.50;74.50;;;;;;5000575;28;20122;-66
2022/08/05 01:27:19;;;;;;;2.85;1.80;;;20.40;74.60;;;;;;5008933;28;20089;-67
2022/08/05 01:29:48;;;;;;;3.35;2.13;;;20.40;74.70;;;;;;5007334;28;20101;-67
2022/08/05 01:32:19;;;;;;;3.10;1.80;;;20.40;74.70;;;;;;5007710;28;20061;-66
2022/08/05 01:34:53;;;;;;;4.53;2.38;;;20.40;74.90;;;;;;5008208;28;20026;-65
2022/08/05 01:37:24;;;;;;;3.45;1.77;;;20.30;75.10;;;;;;5008233;28;20780;-66
2022/08/05 01:39:53;;;;;;;3.28;1.92;;;20.30;75.10;;;;;;5008190;28;20022;-66
2022/08/05 01:42:21;;;;;;;3.22;2.20;;;20.40;75.10;;;;;;5009411;28;20113;-66
2022/08/05 01:44:47;;;;;;;3.97;1.90;;;20.30;75.20;;;;;;5006418;28;20485;-66
2022/08/05 01:47:18;;;;;;;5.03;2.10;;;20.40;75.10;;;;;;5015068;28;20408;-66
2022/08/05 01:49:44;;;;;;;2.58;1.75;;;20.40;75.00;;;;;;5008295;28;20503;-66
2022/08/05 01:52:11;;;;;;;2.35;1.67;;;20.40;75.00;;;;;;5007418;28;20037;-66
2022/08/05 01:54:57;;;;;;;3.78;1.90;;;20.40;74.80;;;;;;5008389;28;20018;-67
2022/08/05 01:57:30;;;;;;;2.88;1.80;;;20.40;74.80;;;;;;5008627;28;20030;-66
2022/08/05 01:59:58;;;;;;;2.75;1.65;;;20.40;74.80;;;;;;5008738;28;20025;-67
2022/08/05 02:02:25;;;;;;;3.33;1.83;;;20.40;74.60;;;;;;5007161;28;20380;-66
2022/08/05 02:04:53;;;;;;;2.25;1.60;;;20.50;74.60;;;;;;5007669;28;20038;-67
2022/08/05 02:07:18;;;;;;;3.25;2.00;;;20.50;74.40;;;;;;5008604;28;20105;-66
2022/08/05 02:09:44;;;;;;;2.53;1.70;;;20.50;74.40;;;;;;5008515;28;20101;-67
2022/08/05 02:12:37;;;;;;;3.22;1.77;;;20.50;74.40;;;;;;5006967;28;20105;-67
2022/08/05 02:15:12;;;;;;;3.78;1.70;;;20.50;74.50;;;;;;5009380;28;20037;-67
2022/08/05 02:17:46;;;;;;;3.00;1.85;;;20.50;74.50;;;;;;5006953;28;20033;-67
2022/08/05 02:20:18;;;;;;;1.95;1.52;;;20.60;74.50;;;;;;5008291;28;20018;-67
2022/08/05 02:22:46;;;;;;;2.28;1.75;;;20.60;74.30;;;;;;5008479;28;20022;-66
2022/08/05 02:25:23;;;;;;;4.68;1.70;;;20.60;74.30;;;;;;5007515;28;20109;-66
2022/08/05 02:27:50;;;;;;;3.45;2.00;;;20.60;74.30;;;;;;5009832;28;20366;-66
2022/08/05 02:30:17;;;;;;;4.68;1.80;;;20.60;74.40;;;;;;5011836;28;20503;-66
2022/08/05 02:32:48;;;;;;;3.08;1.90;;;20.60;74.30;;;;;;5010731;28;20033;-66
2022/08/05 02:35:19;;;;;;;2.65;1.40;;;20.70;74.20;;;;;;5013241;28;20088;-66
2022/08/05 02:37:45;;;;;;;3.33;1.50;;;20.70;74.00;;;;;;5012014;28;20022;-67
2022/08/05 02:40:13;;;;;;;2.25;1.65;;;20.70;73.90;;;;;;5011365;28;20093;-67
2022/08/05 02:42:39;;;;;;;2.25;1.65;;;20.70;73.90;;;;;;5012124;28;20096;-65
2022/08/05 02:45:08;;;;;;;3.65;1.90;;;20.70;73.90;;;;;;5010858;28;20033;-67
2022/08/05 02:47:36;;;;;;;3.67;1.75;;;20.70;74.00;;;;;;5013972;28;20572;-66
2022/08/05 02:50:03;;;;;;;4.20;2.00;;;20.60;73.90;;;;;;5013819;28;20029;-66
2022/08/05 02:52:30;;;;;;;3.55;2.00;;;20.60;74.00;;;;;;5008435;28;20025;-66
2022/08/05 02:54:57;;;;;;;2.50;1.63;;;20.60;74.00;;;;;;5011784;28;20491;-67
2022/08/05 02:57:23;;;;;;;4.00;2.05;;;20.60;74.10;;;;;;5011068;28;20032;-66
2022/08/05 02:59:50;;;;;;;3.58;2.08;;;20.50;74.10;;;;;;5011401;28;20022;-66
2022/08/05 03:02:18;;;;;;;4.15;1.88;;;20.50;74.30;;;;;;5011040;28;20030;-66
2022/08/05 03:04:45;;;;;;;3.90;2.10;;;20.40;74.30;;;;;;5016349;28;20424;-67
2022/08/05 03:07:12;;;;;;;3.47;1.95;;;20.40;74.40;;;;;;5010486;28;20034;-66
2022/08/05 03:09:40;;;;;;;3.60;1.70;;;20.40;74.60;;;;;;5011228;28;20054;-66
2022/08/05 03:12:06;;;;;;;3.30;1.80;;;20.40;74.70;;;;;;5010841;28;20555;-67
2022/08/05 03:14:32;;;;;;;3.40;1.98;;;20.40;74.60;;;;;;5017598;28;20021;-67
2022/08/05 03:16:58;;;;;;;3.38;2.03;;;20.30;74.60;;;;;;5010048;28;20026;-67
2022/08/05 03:19:23;;;;;;;2.17;1.50;;;20.40;74.60;;;;;;5011091;28;20052;-66
2022/08/05 03:21:49;;;;;;;2.75;1.80;;;20.40;74.50;;;;;;5011452;28;20448;-66
2022/08/05 03:24:16;;;;;;;3.83;2.20;;;20.40;74.60;;;;;;5012469;28;20018;-67
2022/08/05 03:26:42;;;;;;;3.08;1.70;;;20.40;74.50;;;;;;5008781;28;20052;-66
2022/08/05 03:29:07;;;;;;;2.70;1.65;;;20.50;74.50;;;;;;5011115;28;20022;-65
2022/08/05 03:31:33;;;;;;;3.58;1.65;;;20.50;74.50;;;;;;5010095;28;20033;-66
2022/08/05 03:33:59;;;;;;;3.30;1.58;;;20.50;74.50;;;;;;5010883;28;20026;-66
2022/08/05 03:36:25;;;;;;;3.00;1.80;;;20.50;74.40;;;;;;5010780;28;20018;-66
2022/08/05 03:38:51;;;;;;;4.43;2.08;;;20.50;74.40;;;;;;5009939;28;20018;-66
2022/08/05 03:41:16;;;;;;;2.58;1.75;;;20.50;74.70;;;;;;5009729;28;20524;-65
2022/08/05 03:43:42;;;;;;;4.13;1.77;;;20.40;74.70;;;;;;5009819;28;20022;-66
2022/08/05 03:46:08;;;;;;;5.05;1.85;;;20.40;74.70;;;;;;5009797;28;20159;-67
2022/08/05 03:48:33;;;;;;;3.95;1.80;;;20.40;74.60;;;;;;5009302;28;20037;-67
2022/08/05 03:51:25;;;;;;;4.97;2.00;;;20.50;74.70;;;;;;5008261;28;20033;-65
2022/08/05 03:53:57;;;;;;;3.10;1.70;;;20.40;74.60;;;;;;5007744;28;20504;-65
2022/08/05 03:56:36;;;;;;;2.97;1.90;;;20.40;74.70;;;;;;5003706;28;20015;-66
2022/08/05 03:59:06;;;;;;;3.50;1.98;;;20.40;74.80;;;;;;5001367;28;20037;-67
2022/08/05 04:01:36;;;;;;;2.35;1.60;;;20.30;74.80;;;;;;5009536;28;20709;-67
2022/08/05 04:04:03;;;;;;;2.63;1.70;;;20.30;75.00;;;;;;5008374;28;20037;-66
2022/08/05 04:06:32;;;;;;;2.97;1.83;;;20.30;75.10;;;;;;5008453;28;20068;-66
2022/08/05 04:08:58;;;;;;;2.13;1.70;;;20.30;75.20;;;;;;5004791;28;20033;-66
2022/08/05 04:11:24;;;;;;;2.90;1.88;;;20.30;75.30;;;;;;5007471;28;20033;-66
2022/08/05 04:13:49;;;;;;;2.63;1.73;;;20.20;75.50;;;;;;5006936;28;20030;-66
2022/08/05 04:16:15;;;;;;;3.33;1.65;;;20.20;75.50;;;;;;5009519;28;20720;-66
2022/08/05 04:18:44;;;;;;;2.88;1.80;;;20.20;75.50;;;;;;5007968;28;20030;-65
2022/08/05 04:21:10;;;;;;;1.98;1.58;;;20.20;75.60;;;;;;5008859;28;20534;-66
2022/08/05 04:23:36;;;;;;;2.63;1.77;;;20.20;75.60;;;;;;5008358;28;20026;-66
2022/08/05 04:26:03;;;;;;;2.20;1.65;;;20.20;75.60;;;;;;5008858;28;20104;-66
2022/08/05 04:28:28;;;;;;;2.58;1.65;;;20.20;75.70;;;;;;5009653;28;20104;-66
2022/08/05 04:30:54;;;;;;;2.83;1.90;;;20.20;75.70;;;;;;5003977;28;20105;-66
2022/08/05 04:33:20;;;;;;;2.50;1.60;;;20.20;75.70;;;;;;5003545;28;20739;-65
2022/08/05 04:35:45;;;;;;;3.72;1.95;;;20.20;75.80;;;;;;5008597;28;20519;-66
2022/08/05 04:38:11;;;;;;;4.03;1.77;;;20.10;76.00;;;;;;5006146;28;20070;-66
2022/08/05 04:40:38;;;;;;;2.85;1.70;;;20.10;76.10;;;;;;5009300;28;20026;-66
2022/08/05 04:43:04;;;;;;;3.38;1.77;;;20.10;76.20;;;;;;5007831;28;20049;-66
2022/08/05 04:45:30;;;;;;;2.95;1.80;;;20.00;76.20;;;;;;5009707;28;20021;-67
2022/08/05 04:48:07;;;;;;;4.15;1.77;;;20.00;76.20;;;;;;5007060;28;20030;-66
2022/08/05 04:50:38;;;;;;;3.50;2.00;;;20.00;76.30;;;;;;5004748;28;20040;-66
2022/08/05 04:53:04;;;;;;;2.22;1.45;;;20.10;76.40;;;;;;5007579;28;20030;-67
2022/08/05 04:55:29;;;;;;;2.65;1.65;;;20.00;76.30;;;;;;5007331;28;20361;-66
2022/08/05 04:57:55;;;;;;;3.58;1.75;;;20.00;76.30;;;;;;5008037;28;20025;-66
2022/08/05 05:00:20;;;;;;;3.33;1.40;;;20.00;76.30;;;;;;5008478;28;20669;-67
2022/08/05 05:02:46;;;;;;;3.13;1.90;;;20.00;76.30;;;;;;5006736;28;20433;-66
2022/08/05 05:05:12;;;;;;;3.75;1.80;;;20.00;76.50;;;;;;5001088;28;20022;-66
2022/08/05 05:07:37;;;;;;;3.72;1.80;;;20.10;76.50;;;;;;5005012;28;20026;-66
2022/08/05 05:10:05;;;;;;;2.45;1.70;;;20.10;76.40;;;;;;5004389;28;20033;-66
2022/08/05 05:12:30;;;;;;;2.17;1.45;;;20.10;76.40;;;;;;5005725;28;20539;-66
2022/08/05 05:14:56;;;;;;;2.42;1.52;;;20.10;76.40;;;;;;5008393;28;20014;-66
2022/08/05 05:17:22;;;;;;;2.63;1.75;;;20.00;76.40;;;;;;5007418;28;20097;-66
2022/08/05 05:19:47;;;;;;;3.17;1.80;;;20.10;76.50;;;;;;5006734;28;20096;-66
2022/08/05 05:22:13;;;;;;;2.80;1.55;;;20.10;76.40;;;;;;5007404;28;20054;-66
2022/08/05 05:24:38;;;;;;;2.45;1.40;;;20.10;76.30;;;;;;5007837;28;20523;-66
2022/08/05 05:27:04;;;;;;;2.22;1.52;;;20.20;76.20;;;;;;5008569;28;20022;-65
2022/08/05 05:29:29;;;;;;;2.70;1.65;;;20.10;76.10;;;;;;5005982;28;20097;-66
2022/08/05 05:31:55;;;;;;;2.70;1.70;;;20.20;76.20;;;;;;5007502;28;20026;-65
2022/08/05 05:34:21;;;;;;;2.47;1.67;;;20.20;76.20;;;;;;5005278;28;20030;-66
2022/08/05 05:36:47;;;;;;;2.80;1.60;;;20.20;76.20;;;;;;5005130;28;20028;-66
2022/08/05 05:39:13;;;;;;;4.40;1.95;;;20.20;76.20;;;;;;4998110;28;20084;-66
2022/08/05 05:41:38;;;;;;;3.15;1.63;;;20.20;76.20;;;;;;5007648;28;20029;-66
2022/08/05 05:44:04;;;;;;;3.50;1.85;;;20.20;76.20;;;;;;5007741;28;20097;-65
2022/08/05 05:46:30;;;;;;;2.28;1.52;;;20.30;76.20;;;;;;5006868;28;20053;-65
2022/08/05 05:48:56;;;;;;;3.90;1.90;;;20.30;76.20;;;;;;5008362;28;20495;-66
2022/08/05 05:51:22;;;;;;;3.65;1.60;;;20.30;76.10;;;;;;5007348;28;20499;-67
2022/08/05 05:53:49;;;;;;;2.47;1.70;;;20.30;75.90;;;;;;5007014;28;20029;-66
2022/08/05 05:56:15;;;;;;;3.63;1.80;;;20.30;75.90;;;;;;5007174;28;20018;-66
2022/08/05 05:58:40;;;;;;;4.45;1.73;;;20.20;76.00;;;;;;5006984;28;20075;-67
2022/08/05 06:01:06;;;;;;;3.30;1.80;;;20.10;76.30;;;;;;5009466;28;20022;-66
2022/08/05 06:03:31;;;;;;;3.13;1.60;;;20.10;76.50;;;;;;5010241;28;20037;-66
2022/08/05 06:05:57;;;;;;;3.88;1.50;;;20.10;76.60;;;;;;5011056;28;20034;-65
2022/08/05 06:08:22;;;;;;;2.80;1.50;;;20.20;76.50;;;;;;5009089;28;20053;-66
2022/08/05 06:10:48;;;;;;;2.50;1.30;;;20.20;76.20;;;;;;5006156;28;20058;-66
2022/08/05 06:13:14;;;;;;;3.35;1.30;;;20.20;76.00;;;;;;5006541;28;20033;-66
2022/08/05 06:15:39;;;;;;;1.67;1.40;;;20.30;76.00;;;;;;5010733;28;20033;-66
2022/08/05 06:18:05;;;;;;;2.30;1.50;;;20.30;75.80;;;;;;5010150;28;20018;-66
2022/08/05 06:20:30;;;;;;;3.38;1.38;;;20.30;75.70;;;;;;5010809;28;20033;-66
2022/08/05 06:22:57;;;;;;;2.63;1.52;;;20.40;75.50;;;;;;5011553;28;20488;-66
2022/08/05 06:25:22;;;;;;;2.22;1.25;;;20.40;75.50;;;;;;5010974;28;20029;-66
2022/08/05 06:27:48;;;;;;;2.22;1.38;;;20.40;75.30;;;;;;5009912;28;20489;-66
2022/08/05 06:30:14;;;;;;;2.95;1.40;;;20.40;75.20;;;;;;5011840;28;20080;-66
2022/08/05 06:32:42;;;;;;;2.53;1.40;;;20.50;75.00;;;;;;5012097;28;20026;-66
2022/08/05 06:35:08;;;;;;;2.15;1.20;;;20.50;74.80;;;;;;5012000;28;20060;-67
2022/08/05 06:37:33;;;;;;;1.98;1.30;;;20.60;74.80;;;;;;5010502;28;20444;-66
2022/08/05 06:39:59;;;;;;;2.72;1.50;;;20.70;74.60;;;;;;5018019;28;20024;-66
2022/08/05 06:42:24;;;;;;;2.55;1.40;;;20.60;74.30;;;;;;5011543;28;20112;-67
2022/08/05 06:44:50;;;;;;;4.75;1.83;;;20.60;74.40;;;;;;5012995;28;20112;-66
2022/08/05 06:47:15;;;;;;;2.88;1.50;;;20.60;74.30;;;;;;5009310;28;20100;-66
2022/08/05 06:49:41;;;;;;;1.83;1.27;;;20.60;74.30;;;;;;5011697;28;20030;-67
2022/08/05 06:52:06;;;;;;;2.35;1.23;;;20.50;74.30;;;;;;5011247;28;20105;-67
2022/08/05 06:54:32;;;;;;;4.78;1.30;;;20.60;74.30;;;;;;5011627;28;20041;-66
2022/08/05 06:56:57;;;;;;;3.10;1.45;;;20.60;74.20;;;;;;5011745;28;20485;-67
2022/08/05 06:59:23;;;;;;;2.15;1.27;;;20.70;74.00;;;;;;5009754;28;20030;-67
2022/08/05 07:01:49;;;;;;;3.85;1.65;;;20.70;73.90;;;;;;5011225;28;20099;-67
2022/08/05 07:04:14;;;;;;;2.70;1.40;;;20.60;73.80;;;;;;5011157;28;20017;-66
2022/08/05 07:06:40;;;;;;;3.20;1.45;;;20.70;73.80;;;;;;5015255;28;20139;-66
2022/08/05 07:09:05;;;;;;;2.25;1.20;;;20.70;73.60;;;;;;5010114;28;20062;-67
2022/08/05 07:11:34;;;;;;;3.78;1.58;;;20.80;73.60;;;;;;5011216;28;20033;-67
2022/08/05 07:16:49;;;;;;;1.80;1.20;;;20.70;73.50;;;;;;5011066;28;20045;-66
2022/08/05 07:19:16;;;;;;;2.75;1.20;;;20.80;73.30;;;;;;5013959;28;20026;-66
2022/08/05 07:21:43;;;;;;;3.42;1.80;;;20.90;73.20;;;;;;5010876;28;20072;-66
2022/08/05 07:24:09;;;;;;;2.03;1.30;;;20.90;73.10;;;;;;5010784;28;20751;-67
2022/08/05 07:26:34;;;;;;;1.83;1.30;;;20.90;72.90;;;;;;5008824;28;20092;-66
2022/08/05 07:29:00;;;;;;;3.80;1.88;;;20.90;72.80;;;;;;5009405;28;20022;-67
2022/08/05 07:31:25;;;;;;;2.67;1.30;;;20.90;72.70;;;;;;5010119;28;20054;-66
2022/08/05 07:33:51;;;;;;;2.28;0.90;;;20.90;72.50;;;;;;5011160;28;20571;-66
2022/08/05 07:36:16;;;;;;;2.10;1.30;;;20.90;72.40;;;;;;5009475;28;20532;-67
2022/08/05 07:38:42;;;;;;;2.00;1.40;;;21.00;72.20;;;;;;5009466;28;20118;-66
2022/08/05 07:41:09;;;;;;;1.90;1.17;;;21.00;71.90;;;;;;5009108;28;20022;-66
2022/08/05 07:43:34;;;;;;;2.88;1.38;;;21.10;71.50;;;;;;5010609;28;20033;-67
2022/08/05 07:46:00;;;;;;;2.92;1.20;;;21.10;71.30;;;;;;5010926;28;20030;-66
2022/08/05 07:48:26;;;;;;;1.77;1.27;;;21.20;71.00;;;;;;5010691;28;20030;-66
2022/08/05 07:50:51;;;;;;;2.22;1.00;;;21.20;71.30;;;;;;5016819;28;20168;-66
2022/08/05 07:53:17;;;;;;;3.30;1.20;;;21.40;70.10;;;;;;5010586;28;20064;-66
2022/08/05 07:55:42;;;;;;;0.98;0.88;;;21.50;69.50;;;;;;5007881;28;20061;-66
2022/08/05 07:58:08;;;;;;;2.22;1.00;;;21.70;68.90;;;;;;5010806;28;20053;-66
2022/08/05 08:00:33;;;;;;;1.40;1.08;;;21.90;68.00;;;;;;5008943;28;20025;-66
2022/08/05 08:02:59;;;;;;;2.08;1.00;;;22.20;67.80;;;;;;5010189;28;20770;-66
2022/08/05 08:05:26;;;;;;;1.27;1.00;;;22.50;67.00;;;;;;5010200;28;20022;-66
2022/08/05 08:07:54;;;;;;;2.33;1.15;;;22.60;65.90;;;;;;5010332;28;20037;-67
2022/08/05 08:10:20;;;;;;;2.30;0.90;;;22.70;65.80;;;;;;5008820;28;20033;-67
2022/08/05 08:12:45;;;;;;;2.75;1.15;;;22.80;64.80;;;;;;5009811;28;20033;-66
2022/08/05 08:15:11;;;;;;;2.28;1.10;;;22.90;63.80;;;;;;5011600;28;20014;-66
2022/08/05 08:17:36;;;;;;;1.80;1.13;;;22.90;62.50;;;;;;5006799;28;20026;-66
2022/08/05 08:20:04;;;;;;;1.75;0.95;;;22.90;61.90;;;;;;5007410;28;20256;-67
2022/08/05 08:22:30;;;;;;;2.17;0.90;;;22.90;62.20;;;;;;5007920;28;20025;-66
2022/08/05 08:24:56;;;;;;;2.13;1.00;;;23.00;62.10;;;;;;5006559;28;20026;-66
2022/08/05 08:27:22;;;;;;;2.42;1.30;;;23.10;61.90;;;;;;5009125;28;20038;-66
2022/08/05 08:29:47;;;;;;;2.83;1.27;;;23.10;60.70;;;;;;5008526;28;20065;-66
2022/08/05 08:32:19;;;;;;;2.25;1.02;;;23.10;60.80;;;;;;5006956;28;20029;-67
2022/08/05 08:34:44;;;;;;;;;;;23.10;60.80;;;;;;5006448;28;20064;-65
2022/08/05 08:37:10;;;;;;;0.95;0.75;;;23.30;61.10;;;;;;5008267;28;19945;-67
2022/08/05 08:39:38;;;;;;;0.93;0.60;;;23.20;60.70;;;;;;5008054;28;20032;-66
2022/08/05 08:42:06;;;;;;;2.33;0.80;;;23.30;60.40;;;;;;5008200;28;20026;-66
2022/08/05 08:44:32;;;;;;;1.80;0.90;;;23.30;60.00;;;;;;5006538;28;20037;-66
2022/08/05 08:47:01;;;;;;;1.85;0.85;;;23.30;60.30;;;;;;5007104;28;20409;-67
2022/08/05 08:49:28;;;;;;;1.48;0.85;;;23.30;60.20;;;;;;5005219;28;20818;-66
2022/08/05 08:52:00;;;;;;;1.92;0.90;;;23.30;60.10;;;;;;5007077;28;20109;-65
2022/08/05 08:54:26;;;;;;;1.40;0.80;;;23.30;60.10;;;;;;5007257;28;20416;-67
2022/08/05 08:56:51;;;;;;;1.17;0.90;;;23.40;60.10;;;;;;5007889;28;20022;-66
2022/08/05 08:59:21;;;;;;;2.13;0.93;;;23.40;59.90;;;;;;5006381;28;20030;-66
2022/08/05 09:01:47;;;;;;;1.75;0.95;;;23.20;59.70;;;;;;5007055;28;20452;-65
2022/08/05 09:04:12;;;;;;;1.88;0.90;;;23.10;60.10;;;;;;5006873;28;20026;-65
2022/08/05 09:06:38;;;;;;;1.88;0.80;;;23.00;60.30;;;;;;5006691;28;20615;-66
2022/08/05 09:09:04;;;;;;;1.02;0.80;;;23.00;60.30;;;;;;5004396;28;20028;-67
2022/08/05 09:11:36;;;;;;;1.70;0.80;;;22.90;60.00;;;;;;5007479;28;20395;-67
2022/08/05 09:14:02;;;;;;;1.33;0.80;;;23.00;59.60;;;;;;5005339;28;20092;-66
2022/08/05 09:16:27;;;;;;;1.33;0.60;;;22.90;59.40;;;;;;5008159;28;20032;-64
2022/08/05 09:18:53;;;;;;;2.00;0.90;;;22.90;59.30;;;;;;5006046;28;20491;-67
2022/08/05 09:21:21;;;;;;;1.13;0.70;;;22.90;59.20;;;;;;5005638;28;20060;-67
2022/08/05 09:24:02;;;;;;;1.15;0.80;;;23.00;59.20;;;;;;5004590;28;20018;-66
2022/08/05 09:26:28;;;;;;;1.35;0.77;;;23.10;58.80;;;;;;5007091;28;20033;-66
2022/08/05 09:28:58;;;;;;;1.45;0.82;;;23.20;58.50;;;;;;5007168;28;20026;-66
2022/08/05 09:31:24;;;;;;;1.77;0.88;;;23.20;58.50;;;;;;5007121;28;20040;-66
2022/08/05 09:33:51;;;;;;;1.20;0.70;;;23.30;58.30;;;;;;5007487;28;20637;-66
2022/08/05 09:36:17;;;;;;;2.00;0.80;;;23.40;58.30;;;;;;5006850;28;20018;-66
2022/08/05 09:39:00;;;;;;;1.02;0.50;;;23.40;56.90;;;;;;5007517;28;20037;-65
2022/08/05 09:41:27;;;;;;;1.20;0.55;;;23.50;56.30;;;;;;5007010;28;20164;-65
2022/08/05 09:43:53;;;;;;;0.90;0.50;;;23.70;55.40;;;;;;5007101;28;20029;-65
2022/08/05 09:46:29;;;;;;;0.63;0.50;;;23.90;54.60;;;;;;5008016;28;20078;-65
2022/08/05 09:48:56;;;;;;;0.52;0.40;;;24.10;54.10;;;;;;5006951;28;20477;-66
2022/08/05 09:51:37;;;;;;;1.35;0.50;;;24.30;53.80;;;;;;5006839;28;20025;-66
2022/08/05 09:54:06;;;;;;;0.45;0.40;;;24.50;52.80;;;;;;5006519;28;20022;-66
2022/08/05 09:56:33;;;;;;;0.82;0.40;;;24.60;52.30;;;;;;5007518;28;20412;-65
2022/08/05 09:59:00;;;;;;;1.75;0.63;;;24.70;51.90;;;;;;5004709;28;20076;-66
2022/08/05 10:01:26;;;;;;;2.05;0.70;;;24.70;49.50;;;;;;5005688;28;20020;-65
2022/08/05 10:03:58;;;;;;;1.27;0.50;;;24.70;48.10;;;;;;5007333;28;20036;-65
2022/08/05 10:06:25;;;;;;;2.13;0.40;;;24.60;48.10;;;;;;5007612;28;20026;-66
2022/08/05 10:08:50;;;;;;;0.30;0.30;;;24.70;47.60;;;;;;5006984;28;20022;-66
2022/08/05 10:11:16;;;;;;;0.85;0.32;;;24.60;45.60;;;;;;5005507;28;20458;-66
2022/08/05 10:13:42;;;;;;;1.63;0.40;;;24.60;45.90;;;;;;5007157;28;20034;-66
2022/08/05 10:16:34;;;;;;;0.63;0.30;;;24.60;46.20;;;;;;5007122;28;20022;-66
2022/08/05 10:19:01;;;;;;;0.93;0.40;;;24.70;46.20;;;;;;5007455;28;20472;-65
2022/08/05 10:21:26;;;;;;;0.85;0.50;;;24.70;46.60;;;;;;5005817;28;20097;-66
2022/08/05 10:23:53;;;;;;;0.60;0.40;;;24.70;46.50;;;;;;5006500;28;20425;-66
2022/08/05 10:26:19;;;;;;;1.13;0.52;;;24.60;46.60;;;;;;5003600;28;20036;-66
2022/08/05 10:28:45;;;;;;;1.20;0.40;;;24.50;46.20;;;;;;5006840;28;20034;-66
2022/08/05 10:31:12;;;;;;;0.93;0.47;;;24.40;46.00;;;;;;5007251;28;20866;-66
2022/08/05 10:33:39;;;;;;;0.95;0.45;;;24.50;46.20;;;;;;5005369;28;20100;-66
2022/08/05 10:36:05;;;;;;;0.90;0.40;;;24.50;46.30;;;;;;5005289;28;20101;-66
2022/08/05 10:38:32;;;;;;;1.00;0.40;;;24.70;46.30;;;;;;5007069;28;20057;-66
2022/08/05 10:41:16;;;;;;;0.88;0.40;;;24.80;46.20;;;;;;5005235;28;20053;-66
2022/08/05 10:44:04;;;;;;;1.98;0.43;;;24.80;45.70;;;;;;5005864;28;20030;-66
2022/08/05 10:46:46;;;;;;;0.82;0.50;;;24.80;44.70;;;;;;5006609;28;20474;-66
2022/08/05 10:49:12;;;;;;;1.63;0.40;;;25.00;44.50;;;;;;5009262;28;20030;-66
2022/08/05 10:51:43;;;;;;;0.70;0.50;;;24.90;43.10;;;;;;5010077;28;20496;-66
2022/08/05 10:54:09;;;;;;;2.80;0.60;;;24.80;43.30;;;;;;5009335;28;20049;-66
2022/08/05 10:56:47;;;;;;;1.42;0.60;;;24.80;43.30;;;;;;5009604;28;20369;-66
2022/08/05 10:59:17;;;;;;;0.50;0.40;;;24.90;43.60;;;;;;5007865;28;20384;-66
2022/08/05 11:01:43;;;;;;;2.35;0.60;;;25.00;43.50;;;;;;5009394;28;20025;-66
2022/08/05 11:04:20;;;;;;;1.25;0.55;;;25.10;41.30;;;;;;5007540;28;20022;-66
2022/08/05 11:06:59;;;;;;;3.15;0.70;;;25.10;41.90;;;;;;5010513;28;20025;-65
2022/08/05 11:09:26;;;;;;;1.42;0.40;;;25.00;41.80;;;;;;5007139;28;20033;-65
2022/08/05 11:11:53;;;;;;;1.15;0.40;;;24.90;41.60;;;;;;5008884;28;20504;-65
2022/08/05 11:14:32;;;;;;;0.52;0.40;;;24.90;41.50;;;;;;5007616;28;20018;-65
2022/08/05 11:17:23;;;;;;;1.02;0.50;;;25.00;42.30;;;;;;5008154;28;20025;-65
2022/08/05 11:19:48;;;;;;;1.65;0.40;;;25.30;40.90;;;;;;5011143;28;20451;-66
2022/08/05 11:22:37;;;;;;;1.38;0.38;;;25.50;40.20;;;;;;5008766;28;20030;-65
2022/08/05 11:25:34;;;;;;;0.57;0.40;;;25.70;39.30;;;;;;5010315;28;20010;-65
2022/08/05 11:28:11;;;;;;;1.77;0.38;;;25.70;38.80;;;;;;5008509;28;20524;-66
2022/08/05 11:31:01;;;;;;;1.45;0.50;;;25.60;38.40;;;;;;5009430;28;20027;-66
2022/08/05 11:33:30;;;;;;;1.23;0.70;;;25.50;38.80;;;;;;5008683;28;20039;-65
2022/08/05 11:36:01;;;;;;;1.80;0.50;;;25.40;39.40;;;;;;5008165;28;20018;-66
2022/08/05 11:38:42;;;;;;;0.50;0.32;;;25.40;39.50;;;;;;5007875;28;20037;-65
2022/08/05 11:41:20;;;;;;;0.57;0.40;;;25.40;39.40;;;;;;5007747;28;20109;-66
2022/08/05 11:43:54;;;;;;;0.40;0.40;;;25.20;38.10;;;;;;5006148;28;20029;-66
2022/08/05 11:46:26;;;;;;;1.05;0.40;;;25.20;38.00;;;;;;5009084;28;20419;-66
2022/08/05 11:48:53;;;;;;;1.40;0.43;;;25.30;38.10;;;;;;5008661;28;20034;-65
2022/08/05 11:51:19;;;;;;;1.65;0.50;;;25.30;37.50;;;;;;5008848;28;20076;-65
2022/08/05 11:53:45;;;;;;;1.42;0.40;;;25.20;37.40;;;;;;5008622;28;20033;-66
2022/08/05 11:56:11;;;;;;;2.15;0.57;;;25.20;37.70;;;;;;5015158;28;20481;-66
2022/08/05 11:58:40;;;;;;;1.05;0.57;;;25.30;37.70;;;;;;5008510;28;20074;-65
2022/08/05 12:01:08;;;;;;;1.08;0.50;;;25.60;37.90;;;;;;5008379;28;20017;-66
2022/08/05 12:03:43;;;;;;;1.60;0.40;;;25.90;38.00;;;;;;5008183;28;20034;-66
2022/08/05 12:06:10;;;;;;;1.35;0.50;;;26.20;38.00;;;;;;5007352;28;20726;-66
2022/08/05 12:08:43;;;;;;;0.77;0.40;;;26.40;37.40;;;;;;5008730;28;20040;-66
2022/08/05 12:11:16;;;;;;;0.45;0.30;;;26.40;36.50;;;;;;5006678;28;20388;-67
2022/08/05 12:13:55;;;;;;;0.82;0.40;;;26.20;36.30;;;;;;5009547;28;20018;-66
2022/08/05 12:16:22;;;;;;;3.80;0.43;;;26.10;36.60;;;;;;5009371;28;20072;-67
2022/08/05 12:18:48;;;;;;;1.00;0.30;;;26.00;36.00;;;;;;5005073;28;20028;-65
2022/08/05 12:21:21;;;;;;;1.10;0.52;;;25.90;36.20;;;;;;5007444;28;20026;-66
2022/08/05 12:23:59;;;;;;;1.38;0.40;;;26.00;36.30;;;;;;5007410;28;20033;-65
2022/08/05 12:26:37;;;;;;;0.52;0.43;;;26.00;35.80;;;;;;5006758;28;20053;-66
2022/08/05 12:29:06;;;;;;;0.88;0.30;;;25.90;34.80;;;;;;5008142;28;20030;-65
2022/08/05 12:31:33;;;;;;;2.42;0.63;;;25.70;35.40;;;;;;5007710;28;20041;-66
2022/08/05 12:34:04;;;;;;;1.13;0.40;;;25.80;35.00;;;;;;5006634;28;20057;-65
2022/08/05 12:36:31;;;;;;;1.25;0.50;;;25.80;35.30;;;;;;5005434;28;20067;-66
2022/08/05 12:38:57;;;;;;;1.55;0.40;;;25.80;35.40;;;;;;5007400;28;20021;-66
2022/08/05 12:41:30;;;;;;;1.10;0.47;;;25.80;35.60;;;;;;5006738;28;20034;-66
2022/08/05 12:44:01;;;;;;;1.15;0.60;;;25.90;35.80;;;;;;5008002;28;20018;-67
2022/08/05 12:46:31;;;;;;;1.13;0.45;;;26.00;35.00;;;;;;5007860;28;20121;-66
2022/08/05 12:49:04;;;;;;;0.70;0.40;;;26.10;35.20;;;;;;5007306;28;20022;-66
2022/08/05 12:51:32;;;;;;;1.10;0.45;;;26.20;35.00;;;;;;5004668;28;20018;-66
2022/08/05 12:54:00;;;;;;;0.90;0.50;;;26.10;34.60;;;;;;5008057;28;20034;-66
2022/08/05 12:56:27;;;;;;;1.08;0.50;;;26.10;34.20;;;;;;5007142;28;20014;-66